createdAt,value
2022-09-16T00:01:24.164Z,1.20
2022-09-16T00:03:56.690Z,2.40
2022-09-16T00:06:28.457Z,2.00
2022-09-16T00:08:58.364Z,1.80
2022-09-16T00:11:26.693Z,2.00
2022-09-16T00:13:55.381Z,2.00
2022-09-16T00:16:26.942Z,2.20
2022-09-16T00:18:56.555Z,2.40
2022-09-16T00:21:26.879Z,1.80
2022-09-16T00:23:56.245Z,2.20
2022-09-16T00:26:25.888Z,1.80
2022-09-16T00:28:54.477Z,1.60
2022-09-16T00:31:22.930Z,1.80
2022-09-16T00:33:51.629Z,1.40
2022-09-16T00:36:21.478Z,1.00
2022-09-16T00:38:55.008Z,2.00
2022-09-16T00:41:27.892Z,0.80
2022-09-16T00:43:58.854Z,1.00
2022-09-16T00:46:33.615Z,1.00
2022-09-16T00:49:06.041Z,1.00
2022-09-16T00:51:35.229Z,1.00
2022-09-16T00:54:09.723Z,1.00
2022-09-16T00:56:42.223Z,1.00
2022-09-16T00:59:15.855Z,1.00
2022-09-16T01:01:45.483Z,1.00
2022-09-16T01:04:20.294Z,1.20
2022-09-16T01:06:50.500Z,1.00
2022-09-16T01:09:24.181Z,1.00
2022-09-16T01:11:52.930Z,1.80
2022-09-16T01:14:42.939Z,0.80
2022-09-16T01:17:29.072Z,1.00
2022-09-16T01:20:16.167Z,1.60
2022-09-16T01:23:03.065Z,0.80
2022-09-16T01:25:50.379Z,0.80
2022-09-16T01:28:49.706Z,1.20
2022-09-16T01:31:23.735Z,1.00
2022-09-16T01:34:01.296Z,1.00
2022-09-16T01:36:42.228Z,2.00
2022-09-16T01:39:23.404Z,2.00
2022-09-16T01:42:05.945Z,2.00
2022-09-16T01:44:46.021Z,2.00
2022-09-16T01:47:23.894Z,1.80
2022-09-16T01:50:03.215Z,2.00
2022-09-16T01:52:43.849Z,2.00
2022-09-16T01:55:19.455Z,1.00
2022-09-16T01:57:55.079Z,1.00
2022-09-16T02:00:23.996Z,2.00
2022-09-16T02:02:59.787Z,1.20
2022-09-16T02:05:34.520Z,1.40
2022-09-16T02:08:07.511Z,2.00
2022-09-16T02:10:41.821Z,1.40
2022-09-16T02:13:18.665Z,2.00
2022-09-16T02:15:50.258Z,2.80
2022-09-16T02:18:26.168Z,2.00
2022-09-16T02:20:59.046Z,2.40
2022-09-16T02:23:33.404Z,2.00
2022-09-16T02:26:06.587Z,1.80
2022-09-16T02:28:39.963Z,2.00
2022-09-16T02:31:10.496Z,2.00
2022-09-16T02:33:46.444Z,2.00
2022-09-16T02:36:18.847Z,2.00
2022-09-16T02:38:50.689Z,1.80
2022-09-16T02:41:19.435Z,2.60
2022-09-16T02:43:47.997Z,2.20
2022-09-16T02:46:23.725Z,3.00
2022-09-16T02:49:04.227Z,2.00
2022-09-16T02:51:42.029Z,2.00
2022-09-16T02:54:17.961Z,2.00
2022-09-16T02:56:46.344Z,1.40
2022-09-16T02:59:16.817Z,2.00
2022-09-16T03:01:47.187Z,2.20
2022-09-16T03:04:19.736Z,2.00
2022-09-16T03:06:48.570Z,10.60
2022-09-16T03:09:19.355Z,20.80
2022-09-16T03:12:12.218Z,12.80
2022-09-16T03:15:19.880Z,4.00
2022-09-16T03:18:17.131Z,2.00
2022-09-16T03:20:56.133Z,2.00
2022-09-16T03:23:45.138Z,2.00
2022-09-16T03:26:21.773Z,2.40
2022-09-16T03:29:01.132Z,2.00
2022-09-16T03:31:33.546Z,1.00
2022-09-16T03:34:08.088Z,1.60
2022-09-16T03:36:44.741Z,53.00
2022-09-16T03:39:14.487Z,23.50
2022-09-16T03:41:43.591Z,5.00
2022-09-16T03:44:13.140Z,4.00
2022-09-16T03:46:41.484Z,3.00
2022-09-16T03:49:10.930Z,4.00
2022-09-16T03:51:40.685Z,7.00
2022-09-16T03:54:09.927Z,36.00
2022-09-16T03:56:38.489Z,11.60
2022-09-16T03:59:06.752Z,6.00
2022-09-16T04:01:35.131Z,4.00
2022-09-16T04:04:04.133Z,13.80
2022-09-16T04:06:32.458Z,23.25
2022-09-16T04:09:03.664Z,6.20
2022-09-16T04:11:32.307Z,6.60
2022-09-16T04:14:00.644Z,2.40
2022-09-16T04:16:29.012Z,3.00
2022-09-16T04:18:57.828Z,2.60
2022-09-16T04:21:26.325Z,4.00
2022-09-16T04:23:55.701Z,4.00
2022-09-16T04:26:25.765Z,3.00
2022-09-16T04:28:55.547Z,2.00
2022-09-16T04:31:24.161Z,2.40
2022-09-16T04:33:52.951Z,3.20
2022-09-16T04:36:21.621Z,9.00
2022-09-16T04:38:50.584Z,3.00
2022-09-16T04:41:21.380Z,1.20
2022-09-16T04:43:54.358Z,3.00
2022-09-16T04:46:23.580Z,1.60
2022-09-16T04:48:53.346Z,3.00
2022-09-16T04:51:22.545Z,2.00
2022-09-16T04:53:51.683Z,3.00
2022-09-16T04:56:22.360Z,2.80
2022-09-16T04:58:53.529Z,2.20
2022-09-16T05:01:25.243Z,2.40
2022-09-16T05:03:55.633Z,4.80
2022-09-16T05:06:26.547Z,3.00
2022-09-16T05:08:57.002Z,2.20
2022-09-16T05:11:27.631Z,3.00
2022-09-16T05:13:59.760Z,3.00
2022-09-16T05:16:28.893Z,4.00
2022-09-16T05:18:59.847Z,3.00
2022-09-16T05:21:30.001Z,2.00
2022-09-16T05:24:01.748Z,2.40
2022-09-16T05:26:32.588Z,3.00
2022-09-16T05:29:04.192Z,2.20
2022-09-16T05:31:34.987Z,2.20
2022-09-16T05:34:05.953Z,2.80
2022-09-16T05:36:37.762Z,2.40
2022-09-16T05:39:24.115Z,2.00
2022-09-16T05:41:55.754Z,2.80
2022-09-16T05:44:26.632Z,4.60
2022-09-16T05:46:55.316Z,5.20
2022-09-16T05:49:24.095Z,6.80
2022-09-16T05:51:53.739Z,4.40
2022-09-16T05:54:25.375Z,2.80
2022-09-16T05:56:54.422Z,2.80
2022-09-16T05:59:24.084Z,2.20
2022-09-16T06:01:53.924Z,2.80
2022-09-16T06:04:22.827Z,3.20
2022-09-16T06:06:51.135Z,3.40
2022-09-16T06:09:21.821Z,3.60
2022-09-16T06:11:52.191Z,2.00
2022-09-16T06:14:22.689Z,4.00
2022-09-16T06:16:53.470Z,2.20
2022-09-16T06:19:21.777Z,3.00
2022-09-16T06:21:50.235Z,3.00
2022-09-16T06:24:20.365Z,3.00
2022-09-16T06:26:50.121Z,3.00
2022-09-16T06:29:18.903Z,4.00
2022-09-16T06:31:47.796Z,4.60
2022-09-16T06:34:19.184Z,3.40
2022-09-16T06:36:48.224Z,3.20
2022-09-16T06:39:18.265Z,3.20
2022-09-16T06:41:51.986Z,2.00
2022-09-16T06:44:24.748Z,3.20
2022-09-16T06:46:53.052Z,2.00
2022-09-16T06:49:22.798Z,1.60
2022-09-16T06:51:51.687Z,4.00
2022-09-16T06:54:19.922Z,3.00
2022-09-16T06:56:49.644Z,0.00
2022-09-16T06:59:18.106Z,3.60
2022-09-16T07:01:46.459Z,2.40
2022-09-16T07:04:14.806Z,3.00
2022-09-16T07:07:08.037Z,4.40
2022-09-16T07:09:34.608Z,3.60
2022-09-16T07:12:03.675Z,3.60
2022-09-16T07:14:32.685Z,3.80
2022-09-16T07:17:01.663Z,3.60
2022-09-16T07:19:30.537Z,4.00
2022-09-16T07:22:00.284Z,4.00
2022-09-16T07:24:28.592Z,4.40
2022-09-16T07:26:57.213Z,4.00
2022-09-16T07:29:25.883Z,4.60
2022-09-16T07:31:54.317Z,6.00
2022-09-16T07:34:23.236Z,3.00
2022-09-16T07:36:51.955Z,3.00
2022-09-16T07:39:22.402Z,3.00
2022-09-16T07:41:51.068Z,6.60
2022-09-16T07:44:20.820Z,6.40
2022-09-16T07:46:51.391Z,7.00
2022-09-16T07:49:20.335Z,4.00
2022-09-16T07:51:49.325Z,3.20
2022-09-16T07:54:19.977Z,1.60
2022-09-16T07:56:50.365Z,3.00
2022-09-16T07:59:20.370Z,4.00
2022-09-16T08:01:50.562Z,3.00
2022-09-16T08:04:21.021Z,1.40
2022-09-16T08:06:50.332Z,2.00
2022-09-16T08:12:10.916Z,3.00
2022-09-16T08:14:39.999Z,4.60
2022-09-16T08:17:08.916Z,2.80
2022-09-16T08:19:38.461Z,4.00
2022-09-16T08:22:06.897Z,3.00
2022-09-16T08:24:35.722Z,3.40
2022-09-16T08:27:04.860Z,3.00
2022-09-16T08:29:34.662Z,3.00
2022-09-16T08:32:03.742Z,5.00
2022-09-16T08:34:32.048Z,3.60
2022-09-16T08:37:00.327Z,4.00
2022-09-16T08:39:28.866Z,2.00
2022-09-16T08:42:25.587Z,2.00
2022-09-16T08:45:02.596Z,2.00
2022-09-16T08:47:42.585Z,1.00
2022-09-16T08:50:17.282Z,2.40
2022-09-16T08:52:46.822Z,2.00
2022-09-16T08:55:20.045Z,2.80
2022-09-16T08:57:57.838Z,2.00
2022-09-16T09:00:27.959Z,2.20
2022-09-16T09:03:00.108Z,2.20
2022-09-16T09:05:40.199Z,1.60
2022-09-16T09:08:22.531Z,2.20
2022-09-16T09:10:58.091Z,2.80
2022-09-16T09:13:40.445Z,1.00
2022-09-16T09:16:21.965Z,3.00
2022-09-16T09:18:58.603Z,6.00
2022-09-16T09:21:36.739Z,5.00
2022-09-16T09:24:20.449Z,3.80
2022-09-16T09:26:51.529Z,2.00
2022-09-16T09:29:43.830Z,2.20
2022-09-16T09:32:26.233Z,2.40
2022-09-16T09:35:09.292Z,2.00
2022-09-16T09:37:53.961Z,3.00
2022-09-16T09:40:28.721Z,2.60
2022-09-16T09:43:10.670Z,1.00
2022-09-16T09:45:44.863Z,1.00
2022-09-16T09:48:21.993Z,2.00
2022-09-16T09:50:51.791Z,2.60
2022-09-16T09:53:26.139Z,1.40
2022-09-16T09:56:01.627Z,1.60
2022-09-16T09:58:38.387Z,2.00
2022-09-16T10:01:07.047Z,1.00
2022-09-16T10:03:38.029Z,0.80
2022-09-16T10:06:06.897Z,2.00
2022-09-16T10:08:42.526Z,2.80
2022-09-16T10:11:18.325Z,2.00
2022-09-16T10:13:51.587Z,3.80
2022-09-16T10:16:22.490Z,3.00
2022-09-16T10:19:00.016Z,2.80
2022-09-16T10:21:41.144Z,2.40
2022-09-16T10:24:29.228Z,3.00
2022-09-16T10:26:58.384Z,1.00
2022-09-16T10:29:27.172Z,2.00
2022-09-16T10:31:58.633Z,4.00
2022-09-16T10:34:33.698Z,3.80
2022-09-16T10:37:06.509Z,3.00
2022-09-16T10:39:35.528Z,3.00
2022-09-16T10:42:06.721Z,2.40
2022-09-16T10:44:38.177Z,3.00
2022-09-16T10:47:15.548Z,2.60
2022-09-16T10:49:49.832Z,3.00
2022-09-16T10:52:19.451Z,2.00
2022-09-16T10:54:49.089Z,1.60
2022-09-16T10:57:26.588Z,4.00
2022-09-16T11:00:00.224Z,4.20
2022-09-16T11:02:44.773Z,2.00
2022-09-16T11:05:26.212Z,2.40
2022-09-16T11:08:03.909Z,4.60
2022-09-16T11:10:43.134Z,2.00
2022-09-16T11:13:31.097Z,2.00
2022-09-16T11:16:17.611Z,3.00
2022-09-16T11:18:55.328Z,2.80
2022-09-16T11:21:55.861Z,3.00
2022-09-16T11:24:43.473Z,2.80
2022-09-16T11:27:21.853Z,4.40
2022-09-16T11:30:00.211Z,4.00
2022-09-16T11:32:40.325Z,5.20
2022-09-16T11:35:34.896Z,4.80
2022-09-16T11:38:16.515Z,4.00
2022-09-16T11:40:48.936Z,3.20
2022-09-16T11:43:54.344Z,4.80
2022-09-16T11:46:32.481Z,6.00
2022-09-16T11:49:28.710Z,5.40
2022-09-16T11:52:10.357Z,6.40
2022-09-16T11:55:07.491Z,9.00
2022-09-16T11:57:41.089Z,8.60
2022-09-16T12:00:13.936Z,3.00
2022-09-16T12:02:47.859Z,7.20
2022-09-16T12:05:21.751Z,7.20
2022-09-16T12:07:57.589Z,8.60
2022-09-16T12:10:33.685Z,8.40
2022-09-16T12:13:09.316Z,8.40
2022-09-16T12:15:44.419Z,8.00
2022-09-16T12:18:18.448Z,8.00
2022-09-16T12:20:52.179Z,7.60
2022-09-16T12:23:24.257Z,9.40
2022-09-16T12:26:05.811Z,9.00
2022-09-16T12:28:38.892Z,9.60
2022-09-16T12:31:15.364Z,10.40
2022-09-16T12:33:50.676Z,9.60
2022-09-16T12:36:24.804Z,11.80
2022-09-16T12:38:53.473Z,11.40
2022-09-16T12:41:46.081Z,7.60
2022-09-16T12:44:47.294Z,8.60
2022-09-16T12:47:36.606Z,7.20
2022-09-16T12:50:29.192Z,9.00
2022-09-16T12:53:25.176Z,6.40
2022-09-16T12:56:07.772Z,6.40
2022-09-16T12:59:00.364Z,6.80
2022-09-16T13:01:33.809Z,5.80
2022-09-16T13:04:10.026Z,6.00
2022-09-16T13:06:46.096Z,5.40
2022-09-16T13:09:22.751Z,6.80
2022-09-16T13:14:49.019Z,9.20
2022-09-16T13:17:29.696Z,7.20
2022-09-16T13:20:05.713Z,7.80
2022-09-16T13:22:45.347Z,9.00
2022-09-16T13:25:23.388Z,9.80
2022-09-16T13:27:58.625Z,10.40
2022-09-16T13:30:34.830Z,8.60
2022-09-16T13:33:26.496Z,9.80
2022-09-16T13:36:17.722Z,9.80
2022-09-16T13:38:49.719Z,10.40
2022-09-16T13:41:32.776Z,10.20
2022-09-16T13:44:02.095Z,11.00
2022-09-16T13:46:35.006Z,11.20
2022-09-16T13:49:19.916Z,9.80
2022-09-16T13:51:50.781Z,9.00
2022-09-16T13:54:28.254Z,7.20
2022-09-16T13:57:19.106Z,8.40
2022-09-16T14:00:08.769Z,10.20
2022-09-16T14:02:50.191Z,10.00
2022-09-16T14:05:32.275Z,14.60
2022-09-16T14:08:11.914Z,11.00
2022-09-16T14:10:48.543Z,13.00
2022-09-16T14:13:19.650Z,7.00
2022-09-16T14:15:51.242Z,9.00
2022-09-16T14:18:25.440Z,8.00
2022-09-16T14:21:02.385Z,8.00
2022-09-16T14:23:33.050Z,8.20
2022-09-16T14:26:12.167Z,9.60
2022-09-16T14:28:41.200Z,9.20
2022-09-16T14:31:14.687Z,8.20
2022-09-16T14:33:49.334Z,9.00
2022-09-16T14:36:24.183Z,8.80
2022-09-16T14:38:58.652Z,7.00
2022-09-16T14:41:31.892Z,10.00
2022-09-16T14:44:09.577Z,7.60
2022-09-16T14:46:43.480Z,8.00
2022-09-16T14:49:16.069Z,10.00
2022-09-16T14:51:47.739Z,9.20
2022-09-16T14:54:20.635Z,7.60
2022-09-16T14:57:00.089Z,9.40
2022-09-16T14:59:32.367Z,7.80
2022-09-16T15:02:05.233Z,8.40
2022-09-16T15:04:40.287Z,9.00
2022-09-16T15:07:17.403Z,10.00
2022-09-16T15:09:52.015Z,17.00
2022-09-16T15:12:29.352Z,10.00
2022-09-16T15:14:58.471Z,11.40
2022-09-16T15:17:29.131Z,9.20
2022-09-16T15:20:00.919Z,12.80
2022-09-16T15:22:29.932Z,9.60
2022-09-16T15:24:59.664Z,10.60
2022-09-16T15:27:29.739Z,12.00
2022-09-16T15:30:00.330Z,15.40
2022-09-16T15:32:31.947Z,12.80
2022-09-16T15:35:16.917Z,9.00
2022-09-16T15:37:46.008Z,9.00
2022-09-16T15:40:32.046Z,8.80
2022-09-16T15:43:25.976Z,11.60
2022-09-16T15:46:03.141Z,13.20
2022-09-16T15:48:35.163Z,9.80
2022-09-16T15:51:09.532Z,12.60
2022-09-16T15:53:45.898Z,10.60
2022-09-16T15:56:30.039Z,9.40
2022-09-16T15:59:01.104Z,33.00
2022-09-16T16:01:41.060Z,29.75
2022-09-16T16:04:13.388Z,32.00
2022-09-16T16:06:49.257Z,18.20
2022-09-16T16:09:32.919Z,9.40
2022-09-16T16:12:03.036Z,8.20
2022-09-16T16:14:32.969Z,10.00
2022-09-16T16:17:18.828Z,9.80
2022-09-16T16:19:49.528Z,9.20
2022-09-16T16:22:20.751Z,8.00
2022-09-16T16:24:49.518Z,7.00
2022-09-16T16:27:17.787Z,7.20
2022-09-16T16:29:46.031Z,7.00
2022-09-16T16:32:16.350Z,14.40
2022-09-16T16:34:47.793Z,14.40
2022-09-16T16:37:40.374Z,12.60
2022-09-16T16:40:08.786Z,13.40
2022-09-16T16:42:37.375Z,9.60
2022-09-16T16:45:06.580Z,10.00
2022-09-16T16:47:34.903Z,9.00
2022-09-16T16:50:03.420Z,9.20
2022-09-16T16:52:31.874Z,8.20
2022-09-16T16:55:00.136Z,10.60
2022-09-16T16:57:30.019Z,10.20
2022-09-16T16:59:58.774Z,9.80
2022-09-16T17:02:27.200Z,8.20
2022-09-16T17:04:56.150Z,9.40
2022-09-16T17:07:26.595Z,12.80
2022-09-16T17:09:57.429Z,13.40
2022-09-16T17:12:26.479Z,11.60
2022-09-16T17:14:56.166Z,11.80
2022-09-16T17:17:30.475Z,12.60
2022-09-16T17:20:00.712Z,7.60
2022-09-16T17:22:29.207Z,9.00
2022-09-16T17:24:57.538Z,10.80
2022-09-16T17:27:27.740Z,11.80
2022-09-16T17:30:01.029Z,11.20
2022-09-16T17:32:30.168Z,9.60
2022-09-16T17:34:58.496Z,12.20
2022-09-16T17:37:26.837Z,9.80
2022-09-16T17:39:55.322Z,11.00
2022-09-16T17:42:23.770Z,10.40
2022-09-16T17:44:52.158Z,10.40
2022-09-16T17:47:22.020Z,12.60
2022-09-16T17:49:50.311Z,9.00
2022-09-16T17:52:18.572Z,8.80
2022-09-16T17:54:47.063Z,10.80
2022-09-16T17:57:15.362Z,9.40
2022-09-16T17:59:43.739Z,11.60
2022-09-16T18:02:12.288Z,10.40
2022-09-16T18:04:44.086Z,9.00
2022-09-16T18:07:12.397Z,9.00
2022-09-16T18:09:40.813Z,9.80
2022-09-16T18:12:09.203Z,15.20
2022-09-16T18:14:37.554Z,12.00
2022-09-16T18:17:06.170Z,13.60
2022-09-16T18:19:34.657Z,14.20
2022-09-16T18:22:04.845Z,18.60
2022-09-16T18:24:33.376Z,20.00
2022-09-16T18:27:02.538Z,11.20
2022-09-16T18:29:31.575Z,14.40
2022-09-16T18:32:00.325Z,13.60
2022-09-16T18:34:33.270Z,13.40
2022-09-16T18:37:02.680Z,11.80
2022-09-16T18:39:32.513Z,10.80
2022-09-16T18:42:00.928Z,10.20
2022-09-16T18:44:29.505Z,13.40
2022-09-16T18:46:57.811Z,10.40
2022-09-16T18:49:28.996Z,9.20
2022-09-16T18:51:57.828Z,28.25
2022-09-16T18:54:28.794Z,22.00
2022-09-16T18:57:00.171Z,7.60
2022-09-16T18:59:30.671Z,11.40
2022-09-16T19:02:01.380Z,10.00
2022-09-16T19:04:32.768Z,11.20
2022-09-16T19:07:07.944Z,10.00
2022-09-16T19:09:39.752Z,11.00
2022-09-16T19:12:11.345Z,11.80
2022-09-16T19:14:40.958Z,12.60
2022-09-16T19:17:09.918Z,10.40
2022-09-16T19:19:38.861Z,11.20
2022-09-16T19:22:07.432Z,13.00
2022-09-16T19:24:37.278Z,10.60
2022-09-16T19:27:05.890Z,12.40
2022-09-16T19:29:35.882Z,13.60
2022-09-16T19:32:04.437Z,11.60
2022-09-16T19:34:32.979Z,13.80
2022-09-16T19:37:02.094Z,15.20
2022-09-16T19:39:31.809Z,12.20
2022-09-16T19:42:03.562Z,12.00
2022-09-16T19:44:32.554Z,10.80
2022-09-16T19:47:02.545Z,11.00
2022-09-16T19:49:31.104Z,10.60
2022-09-16T19:51:59.899Z,10.60
2022-09-16T19:54:28.539Z,9.80
2022-09-16T19:56:57.300Z,9.00
2022-09-16T19:59:26.688Z,9.80
2022-09-16T20:01:55.259Z,9.40
2022-09-16T20:04:25.519Z,10.80
2022-09-16T20:06:56.580Z,11.00
2022-09-16T20:09:27.794Z,12.00
2022-09-16T20:11:56.716Z,12.80
2022-09-16T20:14:33.575Z,13.40
2022-09-16T20:17:03.021Z,12.40
2022-09-16T20:19:33.991Z,13.20
2022-09-16T20:22:02.814Z,13.80
2022-09-16T20:24:31.512Z,13.00
2022-09-16T20:27:00.036Z,15.20
2022-09-16T20:29:28.353Z,14.80
2022-09-16T20:31:56.986Z,13.00
2022-09-16T20:34:25.391Z,15.40
2022-09-16T20:36:57.101Z,15.00
2022-09-16T20:39:25.624Z,14.20
2022-09-16T20:41:54.085Z,15.80
2022-09-16T20:44:22.549Z,17.80
2022-09-16T20:46:51.456Z,15.20
2022-09-16T20:49:23.026Z,14.60
2022-09-16T20:51:52.277Z,14.80
2022-09-16T20:54:21.987Z,15.60
2022-09-16T20:56:51.190Z,13.40
2022-09-16T20:59:21.530Z,13.20
2022-09-16T21:01:50.659Z,15.60
2022-09-16T21:04:21.138Z,14.60
2022-09-16T21:06:49.841Z,15.80
2022-09-16T21:09:19.545Z,14.40
2022-09-16T21:11:49.803Z,11.60
2022-09-16T21:14:21.703Z,13.20
2022-09-16T21:16:51.683Z,13.20
2022-09-16T21:19:20.320Z,12.80
2022-09-16T21:21:48.696Z,14.00
2022-09-16T21:24:18.383Z,13.00
2022-09-16T21:26:47.265Z,13.00
2022-09-16T21:29:21.238Z,12.00
2022-09-16T21:31:50.470Z,12.60
2022-09-16T21:34:21.989Z,13.40
2022-09-16T21:36:51.700Z,12.40
2022-09-16T21:39:21.864Z,12.60
2022-09-16T21:41:50.731Z,11.00
2022-09-16T21:44:20.715Z,13.40
2022-09-16T21:46:49.735Z,14.40
2022-09-16T21:49:22.899Z,13.20
2022-09-16T21:51:52.264Z,13.00
2022-09-16T21:54:21.348Z,12.00
2022-09-16T21:56:50.962Z,14.20
2022-09-16T21:59:21.441Z,11.80
2022-09-16T22:01:51.105Z,12.80
2022-09-16T22:04:21.854Z,14.60
2022-09-16T22:06:50.861Z,13.00
2022-09-16T22:09:19.212Z,15.60
2022-09-16T22:11:48.179Z,12.20
2022-09-16T22:14:17.415Z,14.80
2022-09-16T22:16:47.222Z,14.40
2022-09-16T22:19:17.891Z,13.80
2022-09-16T22:21:49.634Z,12.80
2022-09-16T22:24:20.438Z,13.00
2022-09-16T22:26:50.600Z,12.80
2022-09-16T22:29:19.410Z,13.40
2022-09-16T22:31:49.653Z,13.00
2022-09-16T22:34:18.403Z,15.00
2022-09-16T22:36:46.792Z,11.80
2022-09-16T22:39:17.801Z,13.20
2022-09-16T22:41:46.689Z,12.20
2022-09-16T22:44:15.410Z,13.40
2022-09-16T22:46:46.313Z,11.40
2022-09-16T22:49:17.165Z,13.60
2022-09-16T22:51:46.116Z,13.60
2022-09-16T22:54:15.848Z,13.80
2022-09-16T22:56:45.246Z,11.60
2022-09-16T22:59:18.263Z,13.40
2022-09-16T23:01:48.098Z,13.80
2022-09-16T23:04:18.531Z,14.60
2022-09-16T23:06:47.369Z,13.00
2022-09-16T23:09:16.013Z,12.80
2022-09-16T23:11:44.802Z,14.80
2022-09-16T23:14:15.298Z,13.20
2022-09-16T23:16:43.804Z,14.80
2022-09-16T23:19:13.078Z,13.00
2022-09-16T23:21:43.762Z,15.00
2022-09-16T23:24:15.769Z,14.80
2022-09-16T23:26:44.607Z,12.80
2022-09-16T23:29:14.431Z,13.80
2022-09-16T23:31:45.457Z,10.00
2022-09-16T23:34:16.856Z,11.20
2022-09-16T23:36:47.069Z,13.80
2022-09-16T23:39:16.957Z,15.20
2022-09-16T23:41:46.019Z,12.80
2022-09-16T23:44:16.086Z,15.40
2022-09-16T23:46:45.089Z,14.60
2022-09-16T23:49:16.952Z,13.60
2022-09-16T23:51:47.359Z,14.60
2022-09-16T23:54:17.279Z,15.60
2022-09-16T23:56:45.927Z,15.00
2022-09-16T23:59:14.500Z,19.40
